createdAt,value
2022-10-03T04:00:30.337Z,6.40
2022-10-03T04:05:30.276Z,11.30
2022-10-03T04:10:30.198Z,12.00
2022-10-03T04:15:37.206Z,14.10
2022-10-03T04:20:30.101Z,12.90
2022-10-03T04:25:30.053Z,14.10
2022-10-03T04:30:30.004Z,8.90
2022-10-03T04:35:29.942Z,10.60
2022-10-03T04:40:29.886Z,21.50
2022-10-03T04:45:29.913Z,13.70
2022-10-03T04:50:29.787Z,15.30
2022-10-03T04:55:29.729Z,15.90
2022-10-03T05:00:29.671Z,8.20
2022-10-03T05:05:29.625Z,12.80
2022-10-03T05:10:29.545Z,12.20
2022-10-03T05:15:29.525Z,10.60
2022-10-03T05:20:29.451Z,14.70
2022-10-03T05:25:29.394Z,10.80
2022-10-03T05:30:29.375Z,11.20
2022-10-03T05:35:29.313Z,9.10
2022-10-03T05:40:29.236Z,13.00
2022-10-03T05:45:29.203Z,14.80
2022-10-03T05:50:29.131Z,11.20
2022-10-03T05:55:29.087Z,16.20
2022-10-03T06:00:29.053Z,16.20
2022-10-03T06:05:28.951Z,13.90
2022-10-03T06:10:28.908Z,12.40
2022-10-03T06:15:28.877Z,9.70
2022-10-03T06:20:28.803Z,12.20
2022-10-03T06:25:28.749Z,14.80
2022-10-03T06:30:28.826Z,21.50
2022-10-03T06:35:28.662Z,13.70
2022-10-03T06:40:28.666Z,15.00
2022-10-03T06:45:30.952Z,10.30
2022-10-03T06:50:28.507Z,13.80
2022-10-03T06:55:28.450Z,19.00
2022-10-03T07:00:28.377Z,19.00
2022-10-03T07:05:28.319Z,16.40
2022-10-03T07:10:28.266Z,15.20
2022-10-03T07:15:50.111Z,15.80
2022-10-03T07:20:29.157Z,11.10
2022-10-03T07:25:28.118Z,14.90
2022-10-03T07:30:28.037Z,11.40
2022-10-03T07:35:28.015Z,13.60
2022-10-03T07:40:27.945Z,15.40
2022-10-03T07:45:27.881Z,16.20
2022-10-03T07:50:27.961Z,12.40
2022-10-03T07:55:27.794Z,13.50
2022-10-03T08:00:27.726Z,13.40
2022-10-03T08:05:27.667Z,16.20
2022-10-03T08:10:27.609Z,11.30
2022-10-03T08:15:27.572Z,14.20
2022-10-03T08:20:27.500Z,15.00
2022-10-03T08:25:27.446Z,13.40
2022-10-03T08:30:27.391Z,14.10
2022-10-03T08:35:27.357Z,14.70
2022-10-03T08:40:27.281Z,14.70
2022-10-03T08:45:27.228Z,14.00
2022-10-03T08:50:27.320Z,15.60
2022-10-03T08:55:27.227Z,19.50
2022-10-03T09:00:27.059Z,23.20
2022-10-03T09:05:27.002Z,16.80
2022-10-03T09:10:26.945Z,15.70
2022-10-03T09:15:26.930Z,17.60
2022-10-03T09:20:26.836Z,13.20
2022-10-03T09:25:26.789Z,11.90
2022-10-03T09:30:26.732Z,11.20
2022-10-03T09:35:26.698Z,14.70
2022-10-03T09:40:26.620Z,14.30
2022-10-03T09:45:26.692Z,12.20
2022-10-03T09:50:26.508Z,11.80
2022-10-03T09:55:26.478Z,10.10
2022-10-03T10:00:26.400Z,12.60
2022-10-03T10:05:26.352Z,7.50
2022-10-03T10:10:26.290Z,7.70
2022-10-03T10:15:26.256Z,12.90
2022-10-03T10:20:33.419Z,9.50
2022-10-03T10:25:26.286Z,7.40
2022-10-03T10:30:26.069Z,5.50
2022-10-03T10:35:26.039Z,7.60
2022-10-03T10:40:25.962Z,12.50
2022-10-03T10:45:25.901Z,10.90
2022-10-03T10:50:25.866Z,7.20
2022-10-03T10:55:25.814Z,7.10
2022-10-03T11:00:25.788Z,6.20
2022-10-03T11:05:25.689Z,8.50
2022-10-03T11:10:25.638Z,6.50
2022-10-03T11:15:25.683Z,4.20
2022-10-03T11:20:25.535Z,5.20
2022-10-03T11:25:25.477Z,5.20
2022-10-03T11:30:25.420Z,4.60
2022-10-03T11:35:25.386Z,7.70
2022-10-03T11:40:25.318Z,3.50
2022-10-03T11:45:25.291Z,5.50
2022-10-03T11:50:25.217Z,5.40
2022-10-03T11:55:25.172Z,4.70
2022-10-03T12:00:25.102Z,4.60
2022-10-03T12:05:25.051Z,4.80
2022-10-03T12:10:24.989Z,4.80
2022-10-03T12:15:24.958Z,4.20
2022-10-03T12:20:24.888Z,5.20
2022-10-03T12:25:24.845Z,5.20
2022-10-03T12:30:24.775Z,6.10
2022-10-03T12:35:24.739Z,2.60
2022-10-03T12:40:24.673Z,6.00
2022-10-03T12:45:24.662Z,4.20
2022-10-03T12:50:24.555Z,7.60
2022-10-03T12:55:24.525Z,3.90
2022-10-03T13:00:24.448Z,4.40
2022-10-03T13:05:24.412Z,4.20
2022-10-03T13:10:24.343Z,5.20
2022-10-03T13:15:24.306Z,4.40
2022-10-03T13:20:24.231Z,3.40
2022-10-03T13:25:24.204Z,4.30
2022-10-03T13:30:24.127Z,4.00
2022-10-03T13:35:24.088Z,3.20
2022-10-03T13:40:24.015Z,3.30
2022-10-03T13:45:23.969Z,7.10
2022-10-03T13:50:23.902Z,5.70
2022-10-03T13:55:23.947Z,3.70
2022-10-03T14:00:23.794Z,3.50
2022-10-03T14:05:23.826Z,5.70
2022-10-03T14:10:23.683Z,5.00
2022-10-03T14:15:23.647Z,4.20
2022-10-03T14:20:23.576Z,5.50
2022-10-03T14:25:23.517Z,5.40
2022-10-03T14:30:23.466Z,2.80
2022-10-03T14:35:23.436Z,7.20
2022-10-03T14:40:23.363Z,5.00
2022-10-03T14:45:23.301Z,3.30
2022-10-03T14:50:23.253Z,5.10
2022-10-03T14:55:27.578Z,3.90
2022-10-03T15:00:24.156Z,4.20
2022-10-03T15:05:23.080Z,5.80
2022-10-03T15:10:23.023Z,3.30
2022-10-03T15:15:22.990Z,5.10
2022-10-03T15:20:22.937Z,5.00
2022-10-03T15:25:22.855Z,5.10
2022-10-03T15:30:23.666Z,4.80
2022-10-03T15:35:22.770Z,6.10
2022-10-03T15:40:22.959Z,3.20
2022-10-03T15:45:22.637Z,4.40
2022-10-03T15:50:22.578Z,4.90
2022-10-03T15:55:22.649Z,6.70
2022-10-03T16:00:22.470Z,4.40
2022-10-03T16:05:22.411Z,5.80
2022-10-03T16:10:22.357Z,3.70
2022-10-03T16:15:22.329Z,4.70
2022-10-03T16:20:22.250Z,4.40
2022-10-03T16:25:29.432Z,5.40
2022-10-03T16:30:22.143Z,6.50
2022-10-03T16:35:22.101Z,5.30
2022-10-03T16:40:22.036Z,6.60
2022-10-03T16:45:22.074Z,6.20
2022-10-03T16:50:21.924Z,6.20
2022-10-03T16:55:21.885Z,7.40
2022-10-03T17:00:21.813Z,8.20
2022-10-03T17:05:21.761Z,6.60
2022-10-03T17:10:21.706Z,6.40
2022-10-03T17:15:21.668Z,8.00
2022-10-03T17:20:21.591Z,3.70
2022-10-03T17:25:21.533Z,11.00
2022-10-03T17:30:21.489Z,6.10
2022-10-03T17:35:21.435Z,5.70
2022-10-03T17:40:21.378Z,8.30
2022-10-03T17:45:21.307Z,6.60
2022-10-03T17:50:21.253Z,5.90
2022-10-03T17:55:21.215Z,5.00
2022-10-03T18:00:21.157Z,8.60
2022-10-03T18:05:21.092Z,9.00
2022-10-03T18:10:21.033Z,10.20
2022-10-03T18:15:21.011Z,11.50
2022-10-03T18:20:21.055Z,8.60
2022-10-03T18:25:20.873Z,9.00
2022-10-03T18:30:20.813Z,8.60
2022-10-03T18:35:20.789Z,8.70
2022-10-03T18:40:20.691Z,11.10
2022-10-03T18:45:20.651Z,10.80
2022-10-03T18:50:20.608Z,13.10
2022-10-03T18:55:20.549Z,15.50
2022-10-03T19:00:20.494Z,10.80
2022-10-03T19:05:20.444Z,13.10
2022-10-03T19:10:20.376Z,9.90
2022-10-03T19:15:20.352Z,10.80
2022-10-03T19:20:20.361Z,11.20
2022-10-03T19:25:20.200Z,12.20
2022-10-03T19:30:20.157Z,12.20
2022-10-03T19:35:20.228Z,11.30
2022-10-03T19:40:20.043Z,14.20
2022-10-03T19:45:19.994Z,11.70
2022-10-03T19:50:19.953Z,8.90
2022-10-03T19:55:19.897Z,15.10
2022-10-03T20:00:19.835Z,12.40
2022-10-03T20:05:19.779Z,15.00
2022-10-03T20:10:19.726Z,13.90
2022-10-03T20:15:19.688Z,16.80
2022-10-03T20:20:19.616Z,15.80
2022-10-03T20:25:19.560Z,14.10
2022-10-03T20:30:19.507Z,10.00
2022-10-03T20:35:19.474Z,9.70
2022-10-03T20:40:19.404Z,10.60
2022-10-03T20:45:19.345Z,9.40
2022-10-03T20:50:19.293Z,12.40
2022-10-03T20:55:19.254Z,13.10
2022-10-03T21:00:19.181Z,12.00
2022-10-03T21:05:19.122Z,10.80
2022-10-03T21:10:19.072Z,13.90
2022-10-03T21:15:19.176Z,11.80
2022-10-03T21:20:19.004Z,9.40
2022-10-03T21:25:18.915Z,13.60
2022-10-03T21:30:18.858Z,8.90
2022-10-03T21:35:18.829Z,11.30
2022-10-03T21:40:18.749Z,14.90
2022-10-03T21:45:18.692Z,10.40
2022-10-03T21:50:18.643Z,9.20
2022-10-03T21:55:18.610Z,11.40
2022-10-03T22:00:18.541Z,11.10
2022-10-03T22:05:18.483Z,8.00
2022-10-03T22:10:21.477Z,11.10
2022-10-03T22:15:18.497Z,9.50
2022-10-03T22:20:18.323Z,10.30
2022-10-03T22:25:18.269Z,10.70
2022-10-03T22:30:25.267Z,11.00
2022-10-03T22:35:18.163Z,11.90
2022-10-03T22:40:18.114Z,8.10
2022-10-03T22:45:18.060Z,11.00
2022-10-03T22:50:18.116Z,10.90
2022-10-03T22:55:17.945Z,8.00
2022-10-03T23:00:17.892Z,12.00
2022-10-03T23:05:17.839Z,7.60
2022-10-03T23:10:17.806Z,12.00
2022-10-03T23:15:17.736Z,8.80
2022-10-03T23:20:17.676Z,11.40
2022-10-03T23:25:17.624Z,8.80
